createdAt,value
2022-11-15T00:03:06.744Z,35.40
2022-11-15T00:08:47.741Z,41.80
2022-11-15T00:14:28.436Z,147.30
2022-11-15T00:20:09.633Z,37.30
2022-11-15T00:25:57.594Z,40.60
2022-11-15T00:31:38.416Z,38.60
2022-11-15T00:37:19.029Z,36.10
2022-11-15T00:43:00.441Z,31.70
2022-11-15T00:48:41.238Z,30.20
2022-11-15T00:54:34.374Z,35.00
2022-11-15T01:00:15.888Z,30.70
2022-11-15T01:06:00.890Z,32.50
2022-11-15T01:11:42.183Z,22.40
2022-11-15T01:17:23.075Z,28.20
2022-11-15T01:23:04.175Z,32.10
2022-11-15T01:28:45.268Z,36.30
2022-11-15T01:34:26.466Z,35.30
2022-11-15T01:40:07.944Z,29.10
2022-11-15T01:45:54.696Z,28.60
2022-11-15T01:51:35.576Z,32.30
2022-11-15T01:57:16.673Z,34.00
2022-11-15T02:02:57.367Z,30.70
2022-11-15T02:08:38.164Z,28.60
2022-11-15T02:14:20.966Z,29.40
2022-11-15T02:20:37.687Z,32.30
2022-11-15T02:26:40.171Z,22.20
2022-11-15T02:32:49.358Z,23.90
2022-11-15T02:38:35.869Z,23.40
2022-11-15T02:44:26.312Z,32.40
2022-11-15T02:50:10.609Z,31.70
2022-11-15T02:55:52.607Z,30.70
2022-11-15T03:01:43.951Z,31.20
2022-11-15T03:07:36.275Z,35.50
2022-11-15T03:13:28.129Z,39.70
2022-11-15T03:19:18.939Z,41.30
2022-11-15T03:25:02.367Z,30.10
2022-11-15T03:30:44.144Z,37.40
2022-11-15T03:36:26.146Z,30.10
2022-11-15T03:42:24.200Z,39.70
2022-11-15T03:48:26.012Z,39.60
2022-11-15T03:54:07.164Z,39.60
2022-11-15T03:59:48.391Z,39.50
2022-11-15T04:05:29.660Z,37.80
2022-11-15T04:11:10.762Z,41.50
2022-11-15T04:16:51.552Z,35.70
2022-11-15T04:22:50.711Z,30.80
2022-11-15T04:28:31.397Z,37.80
2022-11-15T04:34:12.205Z,33.10
2022-11-15T04:39:53.017Z,34.90
2022-11-15T04:45:34.095Z,33.20
2022-11-15T04:51:15.101Z,40.40
2022-11-15T04:56:56.289Z,43.40
2022-11-15T05:02:55.498Z,54.70
2022-11-15T05:08:36.268Z,55.30
2022-11-15T05:14:17.449Z,53.00
2022-11-15T05:19:58.425Z,54.90
2022-11-15T05:25:39.857Z,53.70
2022-11-15T05:31:20.528Z,39.20
2022-11-15T05:37:01.025Z,40.40
2022-11-15T05:42:41.719Z,37.20
2022-11-15T05:48:22.110Z,44.20
2022-11-15T05:54:03.249Z,36.50
2022-11-15T05:59:44.604Z,45.60
2022-11-15T06:05:25.400Z,52.30
2022-11-15T06:11:07.274Z,57.30
2022-11-15T06:16:47.696Z,52.10
2022-11-15T06:22:28.490Z,75.90
2022-11-15T06:28:09.486Z,43.50
2022-11-15T06:33:50.722Z,44.50
2022-11-15T06:39:31.783Z,50.80
2022-11-15T06:45:12.274Z,75.50
2022-11-15T06:50:53.696Z,71.40
2022-11-15T06:56:35.035Z,52.90
2022-11-15T07:02:17.876Z,67.30
2022-11-15T07:07:59.708Z,65.30
2022-11-15T07:13:40.469Z,68.00
2022-11-15T07:19:20.961Z,68.80
2022-11-15T07:25:01.538Z,64.50
2022-11-15T07:30:45.385Z,59.00
2022-11-15T07:36:26.560Z,76.50
2022-11-15T07:42:25.623Z,75.00
2022-11-15T07:48:07.746Z,70.60
2022-11-15T07:53:48.663Z,60.30
2022-11-15T07:59:29.237Z,65.10
2022-11-15T08:05:10.053Z,87.20
2022-11-15T08:10:50.804Z,80.20
2022-11-15T08:16:31.843Z,87.90
2022-11-15T08:22:14.817Z,97.50
2022-11-15T08:27:58.535Z,95.20
2022-11-15T08:33:39.406Z,89.30
2022-11-15T08:39:20.170Z,102.80
2022-11-15T08:45:00.765Z,95.70
2022-11-15T08:50:41.445Z,78.90
2022-11-15T08:56:22.183Z,69.30
2022-11-15T09:02:03.822Z,77.20
2022-11-15T09:07:44.806Z,67.80
2022-11-15T09:13:25.430Z,48.40
2022-11-15T09:19:11.474Z,42.30
2022-11-15T09:24:52.437Z,45.10
2022-11-15T09:30:33.451Z,45.10
2022-11-15T09:36:14.392Z,46.80
2022-11-15T09:42:16.861Z,38.80
2022-11-15T09:48:19.941Z,38.80
2022-11-15T10:00:46.420Z,57.40
2022-11-15T10:06:25.706Z,44.60
2022-11-15T10:11:47.485Z,47.00
2022-11-15T10:17:28.344Z,43.80
2022-11-15T10:23:00.876Z,47.80
2022-11-15T10:28:26.211Z,42.20
2022-11-15T10:33:48.159Z,37.30
2022-11-15T10:39:13.447Z,35.80
2022-11-15T10:44:42.983Z,36.20
2022-11-15T10:50:27.810Z,40.10
2022-11-15T10:55:51.417Z,46.20
2022-11-15T11:01:19.053Z,43.80
2022-11-15T11:06:51.489Z,40.20
2022-11-15T11:12:13.325Z,44.30
2022-11-15T11:18:11.863Z,44.10
2022-11-15T11:23:45.029Z,45.00
2022-11-15T11:29:26.060Z,45.50
2022-11-15T11:35:14.924Z,40.70
2022-11-15T11:41:00.360Z,35.70
2022-11-15T11:46:31.439Z,38.10
2022-11-15T11:51:56.382Z,37.90
2022-11-15T11:57:30.496Z,38.50
2022-11-15T12:03:12.537Z,41.50
2022-11-15T12:08:51.145Z,38.90
2022-11-15T12:14:26.377Z,33.30
2022-11-15T12:19:48.563Z,38.00
2022-11-15T12:25:19.997Z,34.90
2022-11-15T12:30:53.270Z,49.50
2022-11-15T12:36:24.019Z,64.30
2022-11-15T12:41:58.098Z,53.20
2022-11-15T12:47:25.555Z,52.50
2022-11-15T12:53:25.814Z,48.00
2022-11-15T12:58:52.778Z,44.20
2022-11-15T13:04:20.972Z,45.40
2022-11-15T13:09:42.569Z,40.20
2022-11-15T13:15:13.131Z,43.50
2022-11-15T13:20:35.241Z,40.80
2022-11-15T13:26:17.673Z,43.70
2022-11-15T13:31:43.605Z,39.50
2022-11-15T13:37:12.823Z,40.10
2022-11-15T13:42:35.522Z,39.40
2022-11-15T13:47:59.281Z,42.20
2022-11-15T13:53:21.508Z,36.40
2022-11-15T13:58:43.349Z,42.10
2022-11-15T14:04:05.347Z,55.40
2022-11-15T14:09:34.034Z,48.00
2022-11-15T14:14:56.086Z,48.20
2022-11-15T14:20:26.701Z,43.30
2022-11-15T14:25:56.425Z,58.70
2022-11-15T14:31:18.494Z,62.50
2022-11-15T14:36:42.574Z,76.20
2022-11-15T14:42:06.501Z,80.60
2022-11-15T14:47:28.193Z,57.90
2022-11-15T14:52:50.212Z,63.20
2022-11-15T14:58:12.050Z,64.70
2022-11-15T15:03:34.172Z,80.70
2022-11-15T15:08:56.113Z,122.40
2022-11-15T15:14:17.931Z,104.20
2022-11-15T15:19:39.630Z,98.40
2022-11-15T15:25:01.559Z,78.10
2022-11-15T15:30:24.267Z,70.70
2022-11-15T15:35:46.196Z,71.50
2022-11-15T15:41:15.687Z,131.20
2022-11-15T15:46:37.754Z,137.80
2022-11-15T15:51:59.391Z,159.50
2022-11-15T15:57:21.355Z,179.70
2022-11-15T16:02:43.670Z,155.10
2022-11-15T16:08:05.834Z,97.50
2022-11-15T16:13:27.423Z,110.00
2022-11-15T16:18:49.068Z,115.00
2022-11-15T16:24:11.090Z,133.90
2022-11-15T16:29:32.943Z,145.70
2022-11-15T16:34:56.170Z,187.20
2022-11-15T16:40:33.587Z,218.70
2022-11-15T16:45:55.473Z,262.20
2022-11-15T16:51:18.084Z,220.60
2022-11-15T16:56:40.785Z,171.10
2022-11-15T17:02:02.746Z,219.30
2022-11-15T17:07:25.352Z,215.00
2022-11-15T17:12:47.270Z,200.60
2022-11-15T17:18:13.514Z,185.20
2022-11-15T17:23:36.263Z,188.30
2022-11-15T17:28:58.079Z,132.40
2022-11-15T17:34:19.607Z,123.20
2022-11-15T17:39:41.665Z,111.00
2022-11-15T17:45:09.322Z,119.80
2022-11-15T17:50:31.871Z,131.50
2022-11-15T17:55:54.350Z,170.70
2022-11-15T18:01:25.082Z,222.20
2022-11-15T18:06:47.511Z,231.10
2022-11-15T18:12:09.958Z,178.50
2022-11-15T18:17:32.105Z,171.60
2022-11-15T18:22:54.592Z,145.30
2022-11-15T18:28:16.290Z,138.60
2022-11-15T18:33:38.166Z,143.30
2022-11-15T18:39:05.085Z,198.00
2022-11-15T18:44:29.132Z,158.30
2022-11-15T18:49:51.014Z,144.80
2022-11-15T18:55:14.507Z,140.20
2022-11-15T19:00:36.598Z,149.50
2022-11-15T19:06:15.995Z,139.40
2022-11-15T19:11:39.900Z,132.00
2022-11-15T19:17:01.735Z,155.90
2022-11-15T19:22:23.618Z,157.30
2022-11-15T19:27:45.583Z,140.90
2022-11-15T19:33:07.487Z,177.80
2022-11-15T19:38:33.495Z,157.90
2022-11-15T19:43:55.725Z,199.40
2022-11-15T19:49:17.773Z,191.70
2022-11-15T19:54:39.954Z,216.40
2022-11-15T20:00:06.830Z,175.30
2022-11-15T20:05:29.522Z,143.10
2022-11-15T20:10:51.249Z,143.90
2022-11-15T20:16:18.857Z,124.70
2022-11-15T20:21:40.896Z,141.90
2022-11-15T20:27:02.389Z,141.60
2022-11-15T20:32:24.413Z,134.60
2022-11-15T20:37:46.452Z,159.00
2022-11-15T20:43:13.116Z,142.70
2022-11-15T20:48:35.507Z,124.40
2022-11-15T20:53:58.332Z,126.50
2022-11-15T20:59:20.254Z,115.70
2022-11-15T21:04:42.139Z,108.50
2022-11-15T21:10:23.025Z,111.30
2022-11-15T21:15:45.072Z,104.60
2022-11-15T21:21:07.652Z,102.80
2022-11-15T21:26:29.689Z,106.90
2022-11-15T21:31:52.711Z,101.00
2022-11-15T21:37:14.634Z,99.00
2022-11-15T21:42:37.134Z,97.10
2022-11-15T21:47:59.183Z,102.30
2022-11-15T21:53:20.925Z,105.90
2022-11-15T21:58:42.653Z,92.20
2022-11-15T22:04:42.610Z,103.60
2022-11-15T22:10:05.021Z,100.20
2022-11-15T22:15:27.215Z,117.80
2022-11-15T22:21:13.608Z,101.60
2022-11-15T22:26:35.737Z,97.60
2022-11-15T22:31:57.798Z,98.00
2022-11-15T22:37:21.167Z,89.60
2022-11-15T22:42:43.619Z,92.30
2022-11-15T22:48:05.848Z,92.60
2022-11-15T22:53:28.981Z,94.50
2022-11-15T22:58:51.015Z,115.10
2022-11-15T23:04:13.040Z,86.90
2022-11-15T23:09:35.071Z,85.30
2022-11-15T23:14:57.024Z,85.70
2022-11-15T23:20:41.963Z,82.90
2022-11-15T23:26:01.693Z,98.80
2022-11-15T23:31:42.226Z,97.30
2022-11-15T23:37:05.446Z,98.00
2022-11-15T23:42:27.692Z,101.10
2022-11-15T23:47:49.613Z,109.60
2022-11-15T23:53:11.737Z,87.20
2022-11-15T23:58:34.547Z,107.90
